sensor_id;sensor_type;location;lat;lon;timestamp;P1;durP1;ratioP1;P2;durP2;ratioP2
2658;SDS011;1339;53.304;10.406;2024-02-26T00:00:40;6.28;;;5.68;;
2658;SDS011;1339;53.304;10.406;2024-02-26T00:03:07;5.90;;;5.40;;
2658;SDS011;1339;53.304;10.406;2024-02-26T00:05:34;5.78;;;5.28;;
2658;SDS011;1339;53.304;10.406;2024-02-26T00:08:04;6.10;;;5.60;;
2658;SDS011;1339;53.304;10.406;2024-02-26T00:10:32;6.53;;;5.93;;
2658;SDS011;1339;53.304;10.406;2024-02-26T00:12:59;6.80;;;6.20;;
2658;SDS011;1339;53.304;10.406;2024-02-26T00:15:26;5.60;;;5.05;;
2658;SDS011;1339;53.304;10.406;2024-02-26T00:17:54;5.30;;;4.80;;
2658;SDS011;1339;53.304;10.406;2024-02-26T00:20:21;5.60;;;5.10;;
2658;SDS011;1339;53.304;10.406;2024-02-26T00:22:48;5.18;;;4.68;;
2658;SDS011;1339;53.304;10.406;2024-02-26T00:25:15;5.78;;;5.38;;
2658;SDS011;1339;53.304;10.406;2024-02-26T00:27:44;5.93;;;5.40;;
2658;SDS011;1339;53.304;10.406;2024-02-26T00:30:11;7.25;;;6.65;;
2658;SDS011;1339;53.304;10.406;2024-02-26T00:32:38;7.20;;;6.53;;
2658;SDS011;1339;53.304;10.406;2024-02-26T00:35:05;7.57;;;6.15;;
2658;SDS011;1339;53.304;10.406;2024-02-26T00:37:34;6.00;;;5.25;;
2658;SDS011;1339;53.304;10.406;2024-02-26T00:40:02;7.82;;;6.28;;
2658;SDS011;1339;53.304;10.406;2024-02-26T00:42:29;6.45;;;5.95;;
2658;SDS011;1339;53.304;10.406;2024-02-26T00:44:58;7.25;;;6.10;;
2658;SDS011;1339;53.304;10.406;2024-02-26T00:47:25;6.43;;;5.82;;
2658;SDS011;1339;53.304;10.406;2024-02-26T00:49:52;7.22;;;6.57;;
2658;SDS011;1339;53.304;10.406;2024-02-26T00:52:19;7.50;;;6.57;;
2658;SDS011;1339;53.304;10.406;2024-02-26T00:54:46;7.20;;;6.60;;
2658;SDS011;1339;53.304;10.406;2024-02-26T00:57:13;5.78;;;5.28;;
2658;SDS011;1339;53.304;10.406;2024-02-26T00:59:40;6.03;;;5.50;;
2658;SDS011;1339;53.304;10.406;2024-02-26T01:02:09;6.40;;;5.80;;
2658;SDS011;1339;53.304;10.406;2024-02-26T01:04:36;8.45;;;6.88;;
2658;SDS011;1339;53.304;10.406;2024-02-26T01:07:03;7.65;;;6.65;;
2658;SDS011;1339;53.304;10.406;2024-02-26T01:09:30;6.97;;;6.28;;
2658;SDS011;1339;53.304;10.406;2024-02-26T01:11:57;6.72;;;6.18;;
2658;SDS011;1339;53.304;10.406;2024-02-26T01:14:24;5.75;;;5.25;;
2658;SDS011;1339;53.304;10.406;2024-02-26T01:16:51;6.28;;;5.78;;
2658;SDS011;1339;53.304;10.406;2024-02-26T01:19:20;6.82;;;5.70;;
2658;SDS011;1339;53.304;10.406;2024-02-26T01:21:47;7.05;;;6.13;;
2658;SDS011;1339;53.304;10.406;2024-02-26T01:24:14;5.90;;;5.40;;
2658;SDS011;1339;53.304;10.406;2024-02-26T01:26:42;6.32;;;5.70;;
2658;SDS011;1339;53.304;10.406;2024-02-26T01:29:09;6.40;;;5.80;;
2658;SDS011;1339;53.304;10.406;2024-02-26T01:31:36;5.45;;;4.95;;
2658;SDS011;1339;53.304;10.406;2024-02-26T01:34:03;7.30;;;5.80;;
2658;SDS011;1339;53.304;10.406;2024-02-26T01:36:32;6.20;;;5.70;;
2658;SDS011;1339;53.304;10.406;2024-02-26T01:38:59;5.70;;;5.20;;
2658;SDS011;1339;53.304;10.406;2024-02-26T01:41:28;6.22;;;5.70;;
2658;SDS011;1339;53.304;10.406;2024-02-26T01:43:55;6.03;;;5.50;;
2658;SDS011;1339;53.304;10.406;2024-02-26T01:46:22;6.30;;;5.70;;
2658;SDS011;1339;53.304;10.406;2024-02-26T01:48:49;6.07;;;5.57;;
2658;SDS011;1339;53.304;10.406;2024-02-26T01:51:17;6.90;;;6.30;;
2658;SDS011;1339;53.304;10.406;2024-02-26T01:53:46;7.85;;;6.38;;
2658;SDS011;1339;53.304;10.406;2024-02-26T01:56:13;8.50;;;6.82;;
2658;SDS011;1339;53.304;10.406;2024-02-26T01:58:41;6.45;;;5.80;;
2658;SDS011;1339;53.304;10.406;2024-02-26T02:01:09;6.13;;;5.57;;
2658;SDS011;1339;53.304;10.406;2024-02-26T02:03:36;6.68;;;5.90;;
2658;SDS011;1339;53.304;10.406;2024-02-26T02:06:04;6.43;;;5.78;;
2658;SDS011;1339;53.304;10.406;2024-02-26T02:08:31;7.15;;;6.47;;
2658;SDS011;1339;53.304;10.406;2024-02-26T02:11:01;6.00;;;4.85;;
2658;SDS011;1339;53.304;10.406;2024-02-26T02:13:29;7.65;;;7.03;;
2658;SDS011;1339;53.304;10.406;2024-02-26T02:15:56;5.70;;;5.20;;
2658;SDS011;1339;53.304;10.406;2024-02-26T02:18:23;6.93;;;6.22;;
2658;SDS011;1339;53.304;10.406;2024-02-26T02:20:52;4.97;;;4.57;;
2658;SDS011;1339;53.304;10.406;2024-02-26T02:23:21;5.78;;;5.20;;
2658;SDS011;1339;53.304;10.406;2024-02-26T02:25:49;5.25;;;4.75;;
2658;SDS011;1339;53.304;10.406;2024-02-26T02:28:16;6.00;;;5.50;;
2658;SDS011;1339;53.304;10.406;2024-02-26T02:30:43;4.18;;;3.88;;
2658;SDS011;1339;53.304;10.406;2024-02-26T02:33:10;6.18;;;5.63;;
2658;SDS011;1339;53.304;10.406;2024-02-26T02:35:38;5.80;;;5.30;;
2658;SDS011;1339;53.304;10.406;2024-02-26T02:38:06;5.70;;;5.20;;
2658;SDS011;1339;53.304;10.406;2024-02-26T02:40:33;5.78;;;5.18;;
2658;SDS011;1339;53.304;10.406;2024-02-26T02:43:00;5.82;;;5.32;;
2658;SDS011;1339;53.304;10.406;2024-02-26T02:45:27;5.22;;;4.80;;
2658;SDS011;1339;53.304;10.406;2024-02-26T02:47:55;6.18;;;5.55;;
2658;SDS011;1339;53.304;10.406;2024-02-26T02:50:22;5.53;;;5.13;;
2658;SDS011;1339;53.304;10.406;2024-02-26T02:52:49;5.55;;;5.05;;
2658;SDS011;1339;53.304;10.406;2024-02-26T02:55:17;5.50;;;5.03;;
2658;SDS011;1339;53.304;10.406;2024-02-26T02:57:44;5.50;;;5.00;;
2658;SDS011;1339;53.304;10.406;2024-02-26T03:00:12;5.70;;;5.20;;
2658;SDS011;1339;53.304;10.406;2024-02-26T03:02:39;5.80;;;5.20;;
2658;SDS011;1339;53.304;10.406;2024-02-26T03:05:08;6.72;;;6.13;;
2658;SDS011;1339;53.304;10.406;2024-02-26T03:07:35;6.25;;;5.72;;
2658;SDS011;1339;53.304;10.406;2024-02-26T03:10:02;6.18;;;5.68;;
2658;SDS011;1339;53.304;10.406;2024-02-26T03:12:32;6.18;;;5.68;;
2658;SDS011;1339;53.304;10.406;2024-02-26T03:14:59;5.65;;;5.15;;
2658;SDS011;1339;53.304;10.406;2024-02-26T03:17:27;6.43;;;5.80;;
2658;SDS011;1339;53.304;10.406;2024-02-26T03:19:55;6.38;;;5.80;;
2658;SDS011;1339;53.304;10.406;2024-02-26T03:22:22;5.40;;;4.95;;
2658;SDS011;1339;53.304;10.406;2024-02-26T03:24:49;6.30;;;5.72;;
2658;SDS011;1339;53.304;10.406;2024-02-26T03:27:16;5.13;;;4.72;;
2658;SDS011;1339;53.304;10.406;2024-02-26T03:29:44;6.05;;;4.82;;
2658;SDS011;1339;53.304;10.406;2024-02-26T03:32:12;4.75;;;4.25;;
2658;SDS011;1339;53.304;10.406;2024-02-26T03:34:40;5.43;;;4.65;;
2658;SDS011;1339;53.304;10.406;2024-02-26T03:37:07;5.15;;;4.68;;
2658;SDS011;1339;53.304;10.406;2024-02-26T03:39:35;6.22;;;5.72;;
2658;SDS011;1339;53.304;10.406;2024-02-26T03:42:02;7.35;;;5.93;;
2658;SDS011;1339;53.304;10.406;2024-02-26T03:44:30;6.30;;;5.25;;
2658;SDS011;1339;53.304;10.406;2024-02-26T03:46:58;5.78;;;5.25;;
2658;SDS011;1339;53.304;10.406;2024-02-26T03:49:25;6.53;;;5.47;;
2658;SDS011;1339;53.304;10.406;2024-02-26T03:51:52;6.53;;;5.93;;
2658;SDS011;1339;53.304;10.406;2024-02-26T03:54:20;7.53;;;5.68;;
2658;SDS011;1339;53.304;10.406;2024-02-26T03:56:47;7.68;;;7.07;;
2658;SDS011;1339;53.304;10.406;2024-02-26T03:59:13;7.13;;;6.50;;
2658;SDS011;1339;53.304;10.406;2024-02-26T04:01:44;5.40;;;4.90;;
2658;SDS011;1339;53.304;10.406;2024-02-26T04:04:13;5.30;;;4.80;;
2658;SDS011;1339;53.304;10.406;2024-02-26T04:06:43;5.68;;;5.28;;
2658;SDS011;1339;53.304;10.406;2024-02-26T04:09:10;5.90;;;5.50;;
2658;SDS011;1339;53.304;10.406;2024-02-26T04:11:38;5.88;;;5.32;;
2658;SDS011;1339;53.304;10.406;2024-02-26T04:14:05;6.35;;;5.80;;
2658;SDS011;1339;53.304;10.406;2024-02-26T04:16:33;6.93;;;5.80;;
2658;SDS011;1339;53.304;10.406;2024-02-26T04:19:00;5.78;;;5.25;;
2658;SDS011;1339;53.304;10.406;2024-02-26T04:21:29;5.85;;;5.32;;
2658;SDS011;1339;53.304;10.406;2024-02-26T04:23:56;5.80;;;5.35;;
2658;SDS011;1339;53.304;10.406;2024-02-26T04:26:26;4.97;;;4.32;;
2658;SDS011;1339;53.304;10.406;2024-02-26T04:28:53;5.45;;;4.97;;
2658;SDS011;1339;53.304;10.406;2024-02-26T04:31:20;6.43;;;5.32;;
2658;SDS011;1339;53.304;10.406;2024-02-26T04:33:48;5.18;;;4.78;;
2658;SDS011;1339;53.304;10.406;2024-02-26T04:36:15;5.75;;;5.25;;
2658;SDS011;1339;53.304;10.406;2024-02-26T04:38:43;7.47;;;5.50;;
2658;SDS011;1339;53.304;10.406;2024-02-26T04:41:10;5.10;;;4.70;;
2658;SDS011;1339;53.304;10.406;2024-02-26T04:43:38;6.88;;;6.13;;
2658;SDS011;1339;53.304;10.406;2024-02-26T04:46:06;5.72;;;5.32;;
2658;SDS011;1339;53.304;10.406;2024-02-26T04:48:34;6.35;;;5.75;;
2658;SDS011;1339;53.304;10.406;2024-02-26T04:51:01;6.55;;;5.75;;
2658;SDS011;1339;53.304;10.406;2024-02-26T04:53:29;6.30;;;5.70;;
2658;SDS011;1339;53.304;10.406;2024-02-26T04:55:57;5.80;;;5.20;;
2658;SDS011;1339;53.304;10.406;2024-02-26T04:58:24;5.22;;;4.72;;
2658;SDS011;1339;53.304;10.406;2024-02-26T05:00:51;5.30;;;4.80;;
2658;SDS011;1339;53.304;10.406;2024-02-26T05:03:18;5.70;;;5.20;;
2658;SDS011;1339;53.304;10.406;2024-02-26T05:05:45;4.53;;;4.22;;
2658;SDS011;1339;53.304;10.406;2024-02-26T05:08:13;7.88;;;5.43;;
2658;SDS011;1339;53.304;10.406;2024-02-26T05:10:40;5.65;;;5.15;;
2658;SDS011;1339;53.304;10.406;2024-02-26T05:13:09;5.97;;;5.47;;
2658;SDS011;1339;53.304;10.406;2024-02-26T05:15:36;5.97;;;5.43;;
2658;SDS011;1339;53.304;10.406;2024-02-26T05:18:04;8.60;;;7.70;;
2658;SDS011;1339;53.304;10.406;2024-02-26T05:20:32;15.07;;;13.88;;
2658;SDS011;1339;53.304;10.406;2024-02-26T05:23:01;9.85;;;9.15;;
2658;SDS011;1339;53.304;10.406;2024-02-26T05:25:28;7.28;;;6.57;;
2658;SDS011;1339;53.304;10.406;2024-02-26T05:27:55;6.03;;;5.43;;
2658;SDS011;1339;53.304;10.406;2024-02-26T05:30:24;5.97;;;5.38;;
2658;SDS011;1339;53.304;10.406;2024-02-26T05:32:52;6.45;;;5.88;;
2658;SDS011;1339;53.304;10.406;2024-02-26T05:35:19;7.18;;;6.57;;
2658;SDS011;1339;53.304;10.406;2024-02-26T05:37:46;6.65;;;6.03;;
2658;SDS011;1339;53.304;10.406;2024-02-26T05:40:13;6.60;;;6.00;;
2658;SDS011;1339;53.304;10.406;2024-02-26T05:42:40;6.72;;;6.07;;
2658;SDS011;1339;53.304;10.406;2024-02-26T05:45:09;7.50;;;6.90;;
2658;SDS011;1339;53.304;10.406;2024-02-26T05:47:38;8.73;;;7.57;;
2658;SDS011;1339;53.304;10.406;2024-02-26T05:50:08;8.23;;;7.43;;
2658;SDS011;1339;53.304;10.406;2024-02-26T05:52:35;12.23;;;10.25;;
2658;SDS011;1339;53.304;10.406;2024-02-26T05:55:03;9.98;;;8.88;;
2658;SDS011;1339;53.304;10.406;2024-02-26T05:57:30;10.52;;;9.27;;
2658;SDS011;1339;53.304;10.406;2024-02-26T05:59:58;7.35;;;6.70;;
2658;SDS011;1339;53.304;10.406;2024-02-26T06:02:28;7.22;;;6.60;;
2658;SDS011;1339;53.304;10.406;2024-02-26T06:04:57;7.53;;;6.88;;
2658;SDS011;1339;53.304;10.406;2024-02-26T06:07:24;7.60;;;6.90;;
2658;SDS011;1339;53.304;10.406;2024-02-26T06:09:52;7.03;;;6.30;;
2658;SDS011;1339;53.304;10.406;2024-02-26T06:12:19;8.32;;;7.53;;
2658;SDS011;1339;53.304;10.406;2024-02-26T06:14:46;7.88;;;7.10;;
2658;SDS011;1339;53.304;10.406;2024-02-26T06:17:13;8.32;;;7.53;;
2658;SDS011;1339;53.304;10.406;2024-02-26T06:19:41;6.72;;;6.03;;
2658;SDS011;1339;53.304;10.406;2024-02-26T06:22:10;7.05;;;6.45;;
2658;SDS011;1339;53.304;10.406;2024-02-26T06:24:37;7.30;;;6.70;;
2658;SDS011;1339;53.304;10.406;2024-02-26T06:27:04;7.05;;;6.35;;
2658;SDS011;1339;53.304;10.406;2024-02-26T06:29:31;7.32;;;6.63;;
2658;SDS011;1339;53.304;10.406;2024-02-26T06:31:58;8.95;;;8.13;;
2658;SDS011;1339;53.304;10.406;2024-02-26T06:34:25;8.43;;;7.65;;
2658;SDS011;1339;53.304;10.406;2024-02-26T06:36:52;7.72;;;7.03;;
2658;SDS011;1339;53.304;10.406;2024-02-26T06:39:21;8.05;;;7.35;;
2658;SDS011;1339;53.304;10.406;2024-02-26T06:41:48;7.28;;;6.57;;
2658;SDS011;1339;53.304;10.406;2024-02-26T06:44:15;5.82;;;5.38;;
2658;SDS011;1339;53.304;10.406;2024-02-26T06:46:42;6.95;;;6.15;;
2658;SDS011;1339;53.304;10.406;2024-02-26T06:49:09;7.45;;;6.85;;
2658;SDS011;1339;53.304;10.406;2024-02-26T06:51:36;11.75;;;6.45;;
2658;SDS011;1339;53.304;10.406;2024-02-26T06:54:03;7.07;;;6.43;;
2658;SDS011;1339;53.304;10.406;2024-02-26T06:56:32;7.60;;;6.90;;
2658;SDS011;1339;53.304;10.406;2024-02-26T06:58:59;7.28;;;6.63;;
2658;SDS011;1339;53.304;10.406;2024-02-26T07:01:26;8.30;;;7.60;;
2658;SDS011;1339;53.304;10.406;2024-02-26T07:03:53;8.23;;;7.43;;
2658;SDS011;1339;53.304;10.406;2024-02-26T07:06:21;8.00;;;7.30;;
2658;SDS011;1339;53.304;10.406;2024-02-26T07:08:48;7.88;;;7.18;;
2658;SDS011;1339;53.304;10.406;2024-02-26T07:11:15;6.85;;;6.35;;
2658;SDS011;1339;53.304;10.406;2024-02-26T07:13:45;7.15;;;6.57;;
2658;SDS011;1339;53.304;10.406;2024-02-26T07:16:12;7.32;;;6.65;;
2658;SDS011;1339;53.304;10.406;2024-02-26T07:18:39;7.43;;;6.72;;
2658;SDS011;1339;53.304;10.406;2024-02-26T07:21:06;7.57;;;6.80;;
2658;SDS011;1339;53.304;10.406;2024-02-26T07:23:33;6.10;;;5.70;;
2658;SDS011;1339;53.304;10.406;2024-02-26T07:26:00;5.82;;;5.35;;
2658;SDS011;1339;53.304;10.406;2024-02-26T07:28:28;6.75;;;6.10;;
2658;SDS011;1339;53.304;10.406;2024-02-26T07:30:56;7.32;;;6.63;;
2658;SDS011;1339;53.304;10.406;2024-02-26T07:33:23;5.70;;;5.15;;
2658;SDS011;1339;53.304;10.406;2024-02-26T07:35:52;8.68;;;6.80;;
2658;SDS011;1339;53.304;10.406;2024-02-26T07:38:19;6.25;;;5.70;;
2658;SDS011;1339;53.304;10.406;2024-02-26T07:40:48;6.22;;;5.75;;
2658;SDS011;1339;53.304;10.406;2024-02-26T07:43:15;6.60;;;6.05;;
2658;SDS011;1339;53.304;10.406;2024-02-26T07:45:42;8.82;;;6.03;;
2658;SDS011;1339;53.304;10.406;2024-02-26T07:48:11;6.38;;;5.80;;
2658;SDS011;1339;53.304;10.406;2024-02-26T07:50:38;7.22;;;6.63;;
2658;SDS011;1339;53.304;10.406;2024-02-26T07:53:06;6.43;;;5.82;;
2658;SDS011;1339;53.304;10.406;2024-02-26T07:55:33;6.05;;;5.55;;
2658;SDS011;1339;53.304;10.406;2024-02-26T07:58:00;7.45;;;6.75;;
2658;SDS011;1339;53.304;10.406;2024-02-26T08:00:27;6.43;;;5.93;;
2658;SDS011;1339;53.304;10.406;2024-02-26T08:02:55;5.82;;;5.40;;
2658;SDS011;1339;53.304;10.406;2024-02-26T08:05:23;5.55;;;5.05;;
2658;SDS011;1339;53.304;10.406;2024-02-26T08:07:53;6.35;;;5.85;;
2658;SDS011;1339;53.304;10.406;2024-02-26T08:10:21;6.63;;;6.00;;
2658;SDS011;1339;53.304;10.406;2024-02-26T08:12:48;7.47;;;6.88;;
2658;SDS011;1339;53.304;10.406;2024-02-26T08:15:15;6.00;;;5.50;;
2658;SDS011;1339;53.304;10.406;2024-02-26T08:17:44;6.55;;;5.97;;
2658;SDS011;1339;53.304;10.406;2024-02-26T08:20:12;6.10;;;5.57;;
2658;SDS011;1339;53.304;10.406;2024-02-26T08:22:41;7.05;;;6.55;;
2658;SDS011;1339;53.304;10.406;2024-02-26T08:25:08;6.00;;;5.50;;
2658;SDS011;1339;53.304;10.406;2024-02-26T08:27:36;6.63;;;6.13;;
2658;SDS011;1339;53.304;10.406;2024-02-26T08:30:03;6.35;;;5.80;;
2658;SDS011;1339;53.304;10.406;2024-02-26T08:32:30;8.23;;;7.53;;
2658;SDS011;1339;53.304;10.406;2024-02-26T08:34:58;6.88;;;6.18;;
2658;SDS011;1339;53.304;10.406;2024-02-26T08:37:25;7.78;;;7.03;;
2658;SDS011;1339;53.304;10.406;2024-02-26T08:39:53;7.60;;;6.90;;
2658;SDS011;1339;53.304;10.406;2024-02-26T08:42:21;7.60;;;6.90;;
2658;SDS011;1339;53.304;10.406;2024-02-26T08:44:49;7.75;;;6.95;;
2658;SDS011;1339;53.304;10.406;2024-02-26T08:47:16;9.13;;;8.32;;
2658;SDS011;1339;53.304;10.406;2024-02-26T08:49:44;8.77;;;8.02;;
2658;SDS011;1339;53.304;10.406;2024-02-26T08:52:11;8.18;;;7.30;;
2658;SDS011;1339;53.304;10.406;2024-02-26T08:54:38;7.68;;;7.10;;
2658;SDS011;1339;53.304;10.406;2024-02-26T08:57:07;6.45;;;5.95;;
2658;SDS011;1339;53.304;10.406;2024-02-26T08:59:34;8.40;;;7.70;;
2658;SDS011;1339;53.304;10.406;2024-02-26T09:02:02;7.90;;;7.20;;
2658;SDS011;1339;53.304;10.406;2024-02-26T09:04:29;7.78;;;6.63;;
2658;SDS011;1339;53.304;10.406;2024-02-26T09:06:56;6.65;;;6.15;;
2658;SDS011;1339;53.304;10.406;2024-02-26T09:09:23;6.78;;;6.22;;
2658;SDS011;1339;53.304;10.406;2024-02-26T09:11:51;7.18;;;6.53;;
2658;SDS011;1339;53.304;10.406;2024-02-26T09:14:21;7.53;;;6.82;;
2658;SDS011;1339;53.304;10.406;2024-02-26T09:16:49;7.15;;;6.55;;
2658;SDS011;1339;53.304;10.406;2024-02-26T09:19:16;7.65;;;7.05;;
2658;SDS011;1339;53.304;10.406;2024-02-26T09:21:43;8.20;;;7.45;;
2658;SDS011;1339;53.304;10.406;2024-02-26T09:24:11;8.70;;;8.10;;
2658;SDS011;1339;53.304;10.406;2024-02-26T09:26:38;8.40;;;7.60;;
2658;SDS011;1339;53.304;10.406;2024-02-26T09:29:05;7.53;;;6.93;;
2658;SDS011;1339;53.304;10.406;2024-02-26T09:31:34;7.07;;;6.53;;
2658;SDS011;1339;53.304;10.406;2024-02-26T09:34:01;8.88;;;7.97;;
2658;SDS011;1339;53.304;10.406;2024-02-26T09:36:29;7.07;;;6.53;;
2658;SDS011;1339;53.304;10.406;2024-02-26T09:38:57;8.10;;;7.40;;
2658;SDS011;1339;53.304;10.406;2024-02-26T09:41:24;7.47;;;6.88;;
2658;SDS011;1339;53.304;10.406;2024-02-26T09:43:55;7.32;;;6.70;;
2658;SDS011;1339;53.304;10.406;2024-02-26T09:46:24;7.70;;;7.00;;
2658;SDS011;1339;53.304;10.406;2024-02-26T09:48:53;7.07;;;6.57;;
2658;SDS011;1339;53.304;10.406;2024-02-26T09:51:20;7.90;;;7.25;;
2658;SDS011;1339;53.304;10.406;2024-02-26T09:53:50;7.82;;;7.20;;
2658;SDS011;1339;53.304;10.406;2024-02-26T09:56:18;7.20;;;6.60;;
2658;SDS011;1339;53.304;10.406;2024-02-26T09:58:45;8.02;;;7.43;;
2658;SDS011;1339;53.304;10.406;2024-02-26T10:01:17;8.10;;;7.40;;
2658;SDS011;1339;53.304;10.406;2024-02-26T10:03:44;7.60;;;7.00;;
2658;SDS011;1339;53.304;10.406;2024-02-26T10:06:16;6.95;;;6.45;;
2658;SDS011;1339;53.304;10.406;2024-02-26T10:08:43;8.73;;;7.93;;
2658;SDS011;1339;53.304;10.406;2024-02-26T10:11:11;7.43;;;6.82;;
2658;SDS011;1339;53.304;10.406;2024-02-26T10:13:38;8.43;;;7.60;;
2658;SDS011;1339;53.304;10.406;2024-02-26T10:16:05;8.65;;;7.97;;
2658;SDS011;1339;53.304;10.406;2024-02-26T10:18:45;8.05;;;7.45;;
2658;SDS011;1339;53.304;10.406;2024-02-26T10:21:12;8.57;;;7.90;;
2658;SDS011;1339;53.304;10.406;2024-02-26T10:23:42;8.02;;;7.43;;
2658;SDS011;1339;53.304;10.406;2024-02-26T10:26:10;7.68;;;7.18;;
2658;SDS011;1339;53.304;10.406;2024-02-26T10:28:37;8.40;;;7.68;;
2658;SDS011;1339;53.304;10.406;2024-02-26T10:31:06;9.00;;;8.20;;
2658;SDS011;1339;53.304;10.406;2024-02-26T10:33:33;9.80;;;9.00;;
2658;SDS011;1339;53.304;10.406;2024-02-26T10:36:01;9.85;;;9.05;;
2658;SDS011;1339;53.304;10.406;2024-02-26T10:38:29;9.80;;;9.00;;
2658;SDS011;1339;53.304;10.406;2024-02-26T10:40:57;10.90;;;9.93;;
2658;SDS011;1339;53.304;10.406;2024-02-26T10:43:25;10.55;;;9.55;;
2658;SDS011;1339;53.304;10.406;2024-02-26T10:45:54;9.43;;;8.63;;
2658;SDS011;1339;53.304;10.406;2024-02-26T10:48:21;7.78;;;7.07;;
2658;SDS011;1339;53.304;10.406;2024-02-26T10:50:48;7.75;;;6.93;;
2658;SDS011;1339;53.304;10.406;2024-02-26T10:53:16;8.50;;;7.80;;
2658;SDS011;1339;53.304;10.406;2024-02-26T10:55:45;8.88;;;8.13;;
2658;SDS011;1339;53.304;10.406;2024-02-26T10:58:15;7.82;;;7.15;;
2658;SDS011;1339;53.304;10.406;2024-02-26T11:00:43;8.38;;;7.68;;
2658;SDS011;1339;53.304;10.406;2024-02-26T11:03:10;7.68;;;6.97;;
2658;SDS011;1339;53.304;10.406;2024-02-26T11:05:38;7.07;;;6.45;;
2658;SDS011;1339;53.304;10.406;2024-02-26T11:08:07;7.50;;;6.90;;
2658;SDS011;1339;53.304;10.406;2024-02-26T11:10:34;7.78;;;6.53;;
2658;SDS011;1339;53.304;10.406;2024-02-26T11:13:03;6.38;;;5.95;;
2658;SDS011;1339;53.304;10.406;2024-02-26T11:15:33;7.40;;;6.80;;
2658;SDS011;1339;53.304;10.406;2024-02-26T11:18:00;6.22;;;5.72;;
2658;SDS011;1339;53.304;10.406;2024-02-26T11:20:28;6.55;;;6.10;;
2658;SDS011;1339;53.304;10.406;2024-02-26T11:22:55;6.70;;;6.20;;
2658;SDS011;1339;53.304;10.406;2024-02-26T11:25:23;6.60;;;6.00;;
2658;SDS011;1339;53.304;10.406;2024-02-26T11:27:51;7.65;;;6.97;;
2658;SDS011;1339;53.304;10.406;2024-02-26T11:30:20;6.10;;;5.70;;
2658;SDS011;1339;53.304;10.406;2024-02-26T11:32:49;5.40;;;5.05;;
2658;SDS011;1339;53.304;10.406;2024-02-26T11:35:17;5.07;;;4.68;;
2658;SDS011;1339;53.304;10.406;2024-02-26T11:37:51;4.65;;;4.35;;
2658;SDS011;1339;53.304;10.406;2024-02-26T11:40:18;4.30;;;3.95;;
2658;SDS011;1339;53.304;10.406;2024-02-26T11:42:45;4.03;;;3.70;;
2658;SDS011;1339;53.304;10.406;2024-02-26T11:48:03;4.20;;;3.90;;
2658;SDS011;1339;53.304;10.406;2024-02-26T11:50:32;3.88;;;3.58;;
2658;SDS011;1339;53.304;10.406;2024-02-26T11:53:19;4.57;;;4.18;;
2658;SDS011;1339;53.304;10.406;2024-02-26T11:55:46;4.30;;;3.90;;
2658;SDS011;1339;53.304;10.406;2024-02-26T11:58:14;4.80;;;4.43;;
2658;SDS011;1339;53.304;10.406;2024-02-26T12:00:42;4.13;;;3.83;;
2658;SDS011;1339;53.304;10.406;2024-02-26T12:03:10;4.43;;;4.13;;
2658;SDS011;1339;53.304;10.406;2024-02-26T12:05:38;4.40;;;4.00;;
2658;SDS011;1339;53.304;10.406;2024-02-26T12:08:06;3.83;;;3.53;;
2658;SDS011;1339;53.304;10.406;2024-02-26T12:10:35;4.03;;;3.65;;
2658;SDS011;1339;53.304;10.406;2024-02-26T12:13:04;4.20;;;3.80;;
2658;SDS011;1339;53.304;10.406;2024-02-26T12:15:32;4.38;;;4.07;;
2658;SDS011;1339;53.304;10.406;2024-02-26T12:18:01;4.93;;;4.05;;
2658;SDS011;1339;53.304;10.406;2024-02-26T12:20:29;4.60;;;4.20;;
2658;SDS011;1339;53.304;10.406;2024-02-26T12:22:57;4.43;;;3.70;;
2658;SDS011;1339;53.304;10.406;2024-02-26T12:25:24;3.70;;;3.50;;
2658;SDS011;1339;53.304;10.406;2024-02-26T12:27:52;4.35;;;3.95;;
2658;SDS011;1339;53.304;10.406;2024-02-26T12:30:19;3.80;;;3.50;;
2658;SDS011;1339;53.304;10.406;2024-02-26T12:32:46;3.70;;;3.40;;
2658;SDS011;1339;53.304;10.406;2024-02-26T12:35:14;3.15;;;2.95;;
2658;SDS011;1339;53.304;10.406;2024-02-26T12:37:43;3.60;;;3.38;;
2658;SDS011;1339;53.304;10.406;2024-02-26T12:40:10;3.92;;;3.63;;
2658;SDS011;1339;53.304;10.406;2024-02-26T12:42:38;3.08;;;2.75;;
2658;SDS011;1339;53.304;10.406;2024-02-26T12:45:06;3.33;;;3.08;;
2658;SDS011;1339;53.304;10.406;2024-02-26T12:47:35;3.47;;;3.28;;
2658;SDS011;1339;53.304;10.406;2024-02-26T12:50:02;4.03;;;3.72;;
2658;SDS011;1339;53.304;10.406;2024-02-26T12:52:30;4.10;;;3.80;;
2658;SDS011;1339;53.304;10.406;2024-02-26T12:54:59;3.10;;;2.90;;
2658;SDS011;1339;53.304;10.406;2024-02-26T12:57:27;3.92;;;3.60;;
2658;SDS011;1339;53.304;10.406;2024-02-26T12:59:55;3.22;;;3.00;;
2658;SDS011;1339;53.304;10.406;2024-02-26T13:02:22;3.78;;;3.47;;
2658;SDS011;1339;53.304;10.406;2024-02-26T13:04:50;3.80;;;3.50;;
2658;SDS011;1339;53.304;10.406;2024-02-26T13:07:17;4.93;;;3.50;;
2658;SDS011;1339;53.304;10.406;2024-02-26T13:09:44;3.72;;;3.42;;
2658;SDS011;1339;53.304;10.406;2024-02-26T13:12:13;4.22;;;3.75;;
2658;SDS011;1339;53.304;10.406;2024-02-26T13:14:40;4.90;;;4.60;;
2658;SDS011;1339;53.304;10.406;2024-02-26T13:17:07;4.78;;;4.00;;
2658;SDS011;1339;53.304;10.406;2024-02-26T13:19:35;4.18;;;3.80;;
2658;SDS011;1339;53.304;10.406;2024-02-26T13:22:05;4.65;;;4.30;;
2658;SDS011;1339;53.304;10.406;2024-02-26T13:24:32;4.95;;;4.55;;
2658;SDS011;1339;53.304;10.406;2024-02-26T13:26:59;4.60;;;4.30;;
2658;SDS011;1339;53.304;10.406;2024-02-26T13:29:29;5.05;;;4.75;;
2658;SDS011;1339;53.304;10.406;2024-02-26T13:31:57;4.30;;;4.00;;
2658;SDS011;1339;53.304;10.406;2024-02-26T13:34:24;4.30;;;4.00;;
2658;SDS011;1339;53.304;10.406;2024-02-26T13:36:52;4.25;;;3.95;;
2658;SDS011;1339;53.304;10.406;2024-02-26T13:39:23;6.00;;;5.40;;
2658;SDS011;1339;53.304;10.406;2024-02-26T13:41:50;6.13;;;5.38;;
2658;SDS011;1339;53.304;10.406;2024-02-26T13:44:17;5.35;;;4.85;;
2658;SDS011;1339;53.304;10.406;2024-02-26T13:46:46;5.57;;;5.18;;
2658;SDS011;1339;53.304;10.406;2024-02-26T13:49:14;6.90;;;6.30;;
2658;SDS011;1339;53.304;10.406;2024-02-26T13:51:41;6.10;;;5.60;;
2658;SDS011;1339;53.304;10.406;2024-02-26T13:54:08;7.20;;;6.43;;
2658;SDS011;1339;53.304;10.406;2024-02-26T13:56:36;6.38;;;5.88;;
2658;SDS011;1339;53.304;10.406;2024-02-26T13:59:03;6.80;;;6.30;;
2658;SDS011;1339;53.304;10.406;2024-02-26T14:01:31;6.60;;;6.00;;
2658;SDS011;1339;53.304;10.406;2024-02-26T14:04:00;6.32;;;5.82;;
2658;SDS011;1339;53.304;10.406;2024-02-26T14:06:29;6.50;;;6.00;;
2658;SDS011;1339;53.304;10.406;2024-02-26T14:08:57;6.35;;;5.75;;
2658;SDS011;1339;53.304;10.406;2024-02-26T14:11:24;6.07;;;5.57;;
2658;SDS011;1339;53.304;10.406;2024-02-26T14:13:54;6.72;;;6.13;;
2658;SDS011;1339;53.304;10.406;2024-02-26T14:16:21;6.10;;;5.60;;
2658;SDS011;1339;53.304;10.406;2024-02-26T14:18:48;7.22;;;6.53;;
2658;SDS011;1339;53.304;10.406;2024-02-26T14:21:16;6.10;;;5.60;;
2658;SDS011;1339;53.304;10.406;2024-02-26T14:23:43;6.22;;;5.72;;
2658;SDS011;1339;53.304;10.406;2024-02-26T14:26:10;6.63;;;6.13;;
2658;SDS011;1339;53.304;10.406;2024-02-26T14:28:38;6.78;;;6.18;;
2658;SDS011;1339;53.304;10.406;2024-02-26T14:31:05;5.68;;;5.28;;
2658;SDS011;1339;53.304;10.406;2024-02-26T14:33:37;7.10;;;6.50;;
2658;SDS011;1339;53.304;10.406;2024-02-26T14:36:05;6.82;;;6.22;;
2658;SDS011;1339;53.304;10.406;2024-02-26T14:38:34;6.95;;;6.35;;
2658;SDS011;1339;53.304;10.406;2024-02-26T14:41:01;8.45;;;6.80;;
2658;SDS011;1339;53.304;10.406;2024-02-26T14:43:29;9.38;;;8.52;;
2658;SDS011;1339;53.304;10.406;2024-02-26T14:45:57;10.38;;;9.30;;
2658;SDS011;1339;53.304;10.406;2024-02-26T14:48:27;10.20;;;9.20;;
2658;SDS011;1339;53.304;10.406;2024-02-26T14:50:54;9.80;;;8.90;;
2658;SDS011;1339;53.304;10.406;2024-02-26T14:53:21;11.25;;;9.40;;
2658;SDS011;1339;53.304;10.406;2024-02-26T14:55:50;10.50;;;9.50;;
2658;SDS011;1339;53.304;10.406;2024-02-26T14:58:17;10.18;;;9.18;;
2658;SDS011;1339;53.304;10.406;2024-02-26T15:00:44;10.80;;;9.70;;
2658;SDS011;1339;53.304;10.406;2024-02-26T15:03:11;9.15;;;7.75;;
2658;SDS011;1339;53.304;10.406;2024-02-26T15:05:38;9.77;;;8.77;;